KMEV 050752Z 0508/0606 19020G30KT P6SM VCSH SCT010 BKN070
FM051300 16014G22KT 4SM -SHRASN BKN030 OVC040
FM052000 20008KT P6SM VCSH BKN025 OVC040
From batch tds/tafs/production/2024/2/5/h08_m00_tafs.cache.xml.gz
Issued (18 days ago)
Forecasts
0508/0513 19020G30KT 6+SM SCT1000 BKN7000

---
wx_string: VCSH
fcst_time_to: '2024-02-05T13:00:00Z'
wind_gust_kt: '30'
sky_condition:
- - sky_cover: SCT
    cloud_base_ft_agl: '1000'
- - sky_cover: BKN
    cloud_base_ft_agl: '7000'
wind_speed_kt: '20'
fcst_time_from: '2024-02-05T08:00:00Z'
wind_dir_degrees: '190'
visibility_statute_mi: 6+

FM051300 16014G22KT 4SM BKN3000 OVC4000

---
wx_string: "-SHRA -SHSN"
fcst_time_to: '2024-02-05T20:00:00Z'
wind_gust_kt: '22'
sky_condition:
- - sky_cover: BKN
    cloud_base_ft_agl: '3000'
- - sky_cover: OVC
    cloud_base_ft_agl: '4000'
wind_speed_kt: '14'
fcst_time_from: '2024-02-05T13:00:00Z'
change_indicator: FM
wind_dir_degrees: '160'
visibility_statute_mi: '4'

FM052000 20008KT 6+SM BKN2500 OVC4000

---
wx_string: VCSH
fcst_time_to: '2024-02-06T06:00:00Z'
sky_condition:
- - sky_cover: BKN
    cloud_base_ft_agl: '2500'
- - sky_cover: OVC
    cloud_base_ft_agl: '4000'
wind_speed_kt: '8'
fcst_time_from: '2024-02-05T20:00:00Z'
change_indicator: FM
wind_dir_degrees: '200'
visibility_statute_mi: 6+

talk